sensor_id;sensor_type;location;lat;lon;timestamp;P1;durP1;ratioP1;P2;durP2;ratioP2
1014;SDS011;8170;48.118;11.628;2022-12-29T00:00:09;3.55;;;1.98;;
1014;SDS011;8170;48.118;11.628;2022-12-29T00:01:15;2.75;;;2.10;;
1014;SDS011;8170;48.118;11.628;2022-12-29T00:02:20;3.70;;;2.15;;
1014;SDS011;8170;48.118;11.628;2022-12-29T00:03:22;3.00;;;2.00;;
1014;SDS011;8170;48.118;11.628;2022-12-29T00:04:26;2.50;;;1.80;;
1014;SDS011;8170;48.118;11.628;2022-12-29T00:05:28;3.70;;;1.70;;
1014;SDS011;8170;48.118;11.628;2022-12-29T00:06:31;2.53;;;1.70;;
1014;SDS011;8170;48.118;11.628;2022-12-29T00:07:34;3.97;;;2.00;;
1014;SDS011;8170;48.118;11.628;2022-12-29T00:08:37;2.67;;;1.65;;
1014;SDS011;8170;48.118;11.628;2022-12-29T00:09:42;2.00;;;1.60;;
1014;SDS011;8170;48.118;11.628;2022-12-29T00:10:45;2.30;;;1.70;;
1014;SDS011;8170;48.118;11.628;2022-12-29T00:11:47;2.40;;;1.85;;
1014;SDS011;8170;48.118;11.628;2022-12-29T00:12:51;2.78;;;1.50;;
1014;SDS011;8170;48.118;11.628;2022-12-29T00:14:12;2.80;;;1.75;;
1014;SDS011;8170;48.118;11.628;2022-12-29T00:15:33;2.20;;;1.60;;
1014;SDS011;8170;48.118;11.628;2022-12-29T00:16:40;2.28;;;1.70;;
1014;SDS011;8170;48.118;11.628;2022-12-29T00:17:46;2.78;;;1.95;;
1014;SDS011;8170;48.118;11.628;2022-12-29T00:18:48;2.35;;;1.60;;
1014;SDS011;8170;48.118;11.628;2022-12-29T00:19:52;2.25;;;1.35;;
1014;SDS011;8170;48.118;11.628;2022-12-29T00:21:13;3.00;;;1.50;;
1014;SDS011;8170;48.118;11.628;2022-12-29T00:22:34;1.80;;;1.50;;
1014;SDS011;8170;48.118;11.628;2022-12-29T00:23:54;2.25;;;1.52;;
1014;SDS011;8170;48.118;11.628;2022-12-29T00:25:15;2.33;;;1.50;;
1014;SDS011;8170;48.118;11.628;2022-12-29T00:26:38;2.05;;;1.33;;
1014;SDS011;8170;48.118;11.628;2022-12-29T00:27:59;2.08;;;1.45;;
1014;SDS011;8170;48.118;11.628;2022-12-29T00:29:20;2.17;;;1.63;;
1014;SDS011;8170;48.118;11.628;2022-12-29T00:30:53;1.63;;;1.33;;
1014;SDS011;8170;48.118;11.628;2022-12-29T00:32:14;2.25;;;1.20;;
1014;SDS011;8170;48.118;11.628;2022-12-29T00:33:42;2.08;;;1.50;;
1014;SDS011;8170;48.118;11.628;2022-12-29T00:35:03;2.40;;;1.35;;
1014;SDS011;8170;48.118;11.628;2022-12-29T00:36:14;2.75;;;1.40;;
1014;SDS011;8170;48.118;11.628;2022-12-29T00:37:19;2.70;;;1.25;;
1014;SDS011;8170;48.118;11.628;2022-12-29T00:38:45;3.08;;;1.40;;
1014;SDS011;8170;48.118;11.628;2022-12-29T00:40:09;2.70;;;1.60;;
1014;SDS011;8170;48.118;11.628;2022-12-29T00:41:30;4.32;;;1.30;;
1014;SDS011;8170;48.118;11.628;2022-12-29T00:42:50;1.95;;;1.40;;
1014;SDS011;8170;48.118;11.628;2022-12-29T00:44:12;2.72;;;1.70;;
1014;SDS011;8170;48.118;11.628;2022-12-29T00:45:18;2.15;;;1.50;;
1014;SDS011;8170;48.118;11.628;2022-12-29T00:46:21;2.50;;;1.45;;
1014;SDS011;8170;48.118;11.628;2022-12-29T00:47:24;2.28;;;1.50;;
1014;SDS011;8170;48.118;11.628;2022-12-29T00:48:28;3.80;;;1.40;;
1014;SDS011;8170;48.118;11.628;2022-12-29T00:49:50;2.13;;;1.33;;
1014;SDS011;8170;48.118;11.628;2022-12-29T00:50:55;3.08;;;1.70;;
1014;SDS011;8170;48.118;11.628;2022-12-29T00:51:58;2.53;;;1.27;;
1014;SDS011;8170;48.118;11.628;2022-12-29T00:53:03;3.53;;;2.10;;
1014;SDS011;8170;48.118;11.628;2022-12-29T00:54:05;3.00;;;1.60;;
1014;SDS011;8170;48.118;11.628;2022-12-29T00:55:08;3.20;;;1.60;;
1014;SDS011;8170;48.118;11.628;2022-12-29T00:56:11;2.88;;;1.65;;
1014;SDS011;8170;48.118;11.628;2022-12-29T00:57:15;3.25;;;1.45;;
1014;SDS011;8170;48.118;11.628;2022-12-29T00:58:18;2.30;;;1.40;;
1014;SDS011;8170;48.118;11.628;2022-12-29T00:59:22;1.90;;;1.25;;
1014;SDS011;8170;48.118;11.628;2022-12-29T01:00:26;2.17;;;1.35;;
1014;SDS011;8170;48.118;11.628;2022-12-29T01:01:30;2.05;;;1.20;;
1014;SDS011;8170;48.118;11.628;2022-12-29T01:02:33;1.95;;;1.40;;
1014;SDS011;8170;48.118;11.628;2022-12-29T01:03:37;1.83;;;1.48;;
1014;SDS011;8170;48.118;11.628;2022-12-29T01:04:40;2.35;;;1.42;;
1014;SDS011;8170;48.118;11.628;2022-12-29T01:05:44;1.90;;;1.38;;
1014;SDS011;8170;48.118;11.628;2022-12-29T01:06:47;2.05;;;1.40;;
1014;SDS011;8170;48.118;11.628;2022-12-29T01:07:50;1.60;;;1.25;;
1014;SDS011;8170;48.118;11.628;2022-12-29T01:08:52;2.08;;;1.30;;
1014;SDS011;8170;48.118;11.628;2022-12-29T01:10:10;2.40;;;1.35;;
1014;SDS011;8170;48.118;11.628;2022-12-29T01:11:13;1.73;;;1.33;;
1014;SDS011;8170;48.118;11.628;2022-12-29T01:12:18;2.00;;;1.40;;
1014;SDS011;8170;48.118;11.628;2022-12-29T01:13:43;1.60;;;1.15;;
1014;SDS011;8170;48.118;11.628;2022-12-29T01:14:46;2.92;;;1.38;;
1014;SDS011;8170;48.118;11.628;2022-12-29T01:15:49;2.15;;;1.35;;
1014;SDS011;8170;48.118;11.628;2022-12-29T01:16:53;2.00;;;1.30;;
1014;SDS011;8170;48.118;11.628;2022-12-29T01:17:56;2.60;;;1.58;;
1014;SDS011;8170;48.118;11.628;2022-12-29T01:18:59;1.58;;;1.25;;
1014;SDS011;8170;48.118;11.628;2022-12-29T01:20:02;3.20;;;1.20;;
1014;SDS011;8170;48.118;11.628;2022-12-29T01:21:08;2.65;;;1.40;;
1014;SDS011;8170;48.118;11.628;2022-12-29T01:22:11;2.38;;;1.42;;
1014;SDS011;8170;48.118;11.628;2022-12-29T01:23:15;1.80;;;1.20;;
1014;SDS011;8170;48.118;11.628;2022-12-29T01:24:19;2.10;;;1.48;;
1014;SDS011;8170;48.118;11.628;2022-12-29T01:25:23;2.50;;;1.33;;
1014;SDS011;8170;48.118;11.628;2022-12-29T01:26:25;2.33;;;1.40;;
1014;SDS011;8170;48.118;11.628;2022-12-29T01:27:28;1.80;;;1.30;;
1014;SDS011;8170;48.118;11.628;2022-12-29T01:28:32;2.28;;;1.42;;
1014;SDS011;8170;48.118;11.628;2022-12-29T01:29:35;2.45;;;1.50;;
1014;SDS011;8170;48.118;11.628;2022-12-29T01:30:39;2.65;;;0.95;;
1014;SDS011;8170;48.118;11.628;2022-12-29T01:31:41;1.90;;;1.27;;
1014;SDS011;8170;48.118;11.628;2022-12-29T01:32:44;1.90;;;1.15;;
1014;SDS011;8170;48.118;11.628;2022-12-29T01:33:47;1.98;;;1.38;;
1014;SDS011;8170;48.118;11.628;2022-12-29T01:34:50;1.75;;;1.23;;
1014;SDS011;8170;48.118;11.628;2022-12-29T01:35:52;1.40;;;0.93;;
1014;SDS011;8170;48.118;11.628;2022-12-29T01:36:57;1.55;;;1.15;;
1014;SDS011;8170;48.118;11.628;2022-12-29T01:38:00;2.33;;;1.00;;
1014;SDS011;8170;48.118;11.628;2022-12-29T01:39:02;2.10;;;1.20;;
1014;SDS011;8170;48.118;11.628;2022-12-29T01:40:06;2.42;;;1.30;;
1014;SDS011;8170;48.118;11.628;2022-12-29T01:41:10;3.47;;;1.80;;
1014;SDS011;8170;48.118;11.628;2022-12-29T01:42:14;2.40;;;1.40;;
1014;SDS011;8170;48.118;11.628;2022-12-29T01:43:19;1.30;;;1.00;;
1014;SDS011;8170;48.118;11.628;2022-12-29T01:44:41;1.90;;;1.42;;
1014;SDS011;8170;48.118;11.628;2022-12-29T01:45:56;1.75;;;1.13;;
1014;SDS011;8170;48.118;11.628;2022-12-29T01:46:59;2.15;;;1.25;;
1014;SDS011;8170;48.118;11.628;2022-12-29T01:48:03;2.03;;;1.05;;
1014;SDS011;8170;48.118;11.628;2022-12-29T01:49:12;2.10;;;1.27;;
1014;SDS011;8170;48.118;11.628;2022-12-29T01:50:19;1.90;;;1.20;;
1014;SDS011;8170;48.118;11.628;2022-12-29T01:51:27;2.05;;;1.02;;
1014;SDS011;8170;48.118;11.628;2022-12-29T01:52:36;1.70;;;1.20;;
1014;SDS011;8170;48.118;11.628;2022-12-29T01:53:43;1.92;;;1.33;;
1014;SDS011;8170;48.118;11.628;2022-12-29T01:54:48;1.52;;;1.02;;
1014;SDS011;8170;48.118;11.628;2022-12-29T01:55:56;1.67;;;1.00;;
1014;SDS011;8170;48.118;11.628;2022-12-29T01:57:05;1.77;;;1.20;;
1014;SDS011;8170;48.118;11.628;2022-12-29T01:58:09;1.67;;;0.95;;
1014;SDS011;8170;48.118;11.628;2022-12-29T01:59:19;1.65;;;1.20;;
1014;SDS011;8170;48.118;11.628;2022-12-29T02:00:27;1.90;;;1.10;;
1014;SDS011;8170;48.118;11.628;2022-12-29T02:01:30;1.25;;;0.77;;
1014;SDS011;8170;48.118;11.628;2022-12-29T02:02:35;2.55;;;1.10;;
1014;SDS011;8170;48.118;11.628;2022-12-29T02:03:38;2.33;;;1.10;;
1014;SDS011;8170;48.118;11.628;2022-12-29T02:04:44;1.70;;;0.90;;
1014;SDS011;8170;48.118;11.628;2022-12-29T02:05:52;1.45;;;1.08;;
1014;SDS011;8170;48.118;11.628;2022-12-29T02:06:59;1.80;;;1.10;;
1014;SDS011;8170;48.118;11.628;2022-12-29T02:08:07;1.10;;;0.80;;
1014;SDS011;8170;48.118;11.628;2022-12-29T02:09:11;1.65;;;1.10;;
1014;SDS011;8170;48.118;11.628;2022-12-29T02:10:14;2.25;;;1.30;;
1014;SDS011;8170;48.118;11.628;2022-12-29T02:11:17;1.40;;;1.10;;
1014;SDS011;8170;48.118;11.628;2022-12-29T02:12:22;2.30;;;1.20;;
1014;SDS011;8170;48.118;11.628;2022-12-29T02:13:25;1.52;;;1.05;;
1014;SDS011;8170;48.118;11.628;2022-12-29T02:14:30;1.70;;;1.02;;
1014;SDS011;8170;48.118;11.628;2022-12-29T02:15:35;2.47;;;1.10;;
1014;SDS011;8170;48.118;11.628;2022-12-29T02:16:53;1.42;;;0.95;;
1014;SDS011;8170;48.118;11.628;2022-12-29T02:18:07;2.25;;;1.02;;
1014;SDS011;8170;48.118;11.628;2022-12-29T02:19:26;1.63;;;0.90;;
1014;SDS011;8170;48.118;11.628;2022-12-29T02:22:33;1.60;;;1.00;;
1014;SDS011;8170;48.118;11.628;2022-12-29T02:23:51;2.58;;;1.23;;
1014;SDS011;8170;48.118;11.628;2022-12-29T02:25:15;1.73;;;1.13;;
1014;SDS011;8170;48.118;11.628;2022-12-29T02:26:44;1.45;;;1.00;;
1014;SDS011;8170;48.118;11.628;2022-12-29T02:28:14;2.25;;;1.25;;
1014;SDS011;8170;48.118;11.628;2022-12-29T02:31:08;2.22;;;1.50;;
1014;SDS011;8170;48.118;11.628;2022-12-29T02:32:18;1.25;;;0.82;;
1014;SDS011;8170;48.118;11.628;2022-12-29T02:33:32;1.23;;;0.80;;
1014;SDS011;8170;48.118;11.628;2022-12-29T02:34:45;2.47;;;1.00;;
1014;SDS011;8170;48.118;11.628;2022-12-29T02:35:56;2.15;;;1.23;;
1014;SDS011;8170;48.118;11.628;2022-12-29T02:37:10;2.00;;;0.90;;
1014;SDS011;8170;48.118;11.628;2022-12-29T02:38:20;1.48;;;1.35;;
1014;SDS011;8170;48.118;11.628;2022-12-29T02:39:33;1.65;;;1.00;;
1014;SDS011;8170;48.118;11.628;2022-12-29T02:40:40;1.55;;;1.13;;
1014;SDS011;8170;48.118;11.628;2022-12-29T02:41:56;2.55;;;1.10;;
1014;SDS011;8170;48.118;11.628;2022-12-29T02:43:01;1.45;;;0.77;;
1014;SDS011;8170;48.118;11.628;2022-12-29T02:44:16;1.45;;;0.90;;
1014;SDS011;8170;48.118;11.628;2022-12-29T02:45:27;1.67;;;0.90;;
1014;SDS011;8170;48.118;11.628;2022-12-29T02:46:36;1.30;;;1.00;;
1014;SDS011;8170;48.118;11.628;2022-12-29T02:47:47;1.65;;;0.90;;
1014;SDS011;8170;48.118;11.628;2022-12-29T02:48:59;1.75;;;0.70;;
1014;SDS011;8170;48.118;11.628;2022-12-29T02:50:08;2.53;;;1.02;;
1014;SDS011;8170;48.118;11.628;2022-12-29T02:51:20;1.65;;;0.98;;
1014;SDS011;8170;48.118;11.628;2022-12-29T02:52:26;1.35;;;1.08;;
1014;SDS011;8170;48.118;11.628;2022-12-29T02:53:33;1.40;;;0.90;;
1014;SDS011;8170;48.118;11.628;2022-12-29T02:54:55;1.85;;;1.10;;
1014;SDS011;8170;48.118;11.628;2022-12-29T02:55:59;1.25;;;0.90;;
1014;SDS011;8170;48.118;11.628;2022-12-29T02:57:03;1.52;;;0.95;;
1014;SDS011;8170;48.118;11.628;2022-12-29T02:58:15;1.70;;;0.90;;
1014;SDS011;8170;48.118;11.628;2022-12-29T02:59:20;1.52;;;0.93;;
1014;SDS011;8170;48.118;11.628;2022-12-29T03:00:23;1.40;;;1.00;;
1014;SDS011;8170;48.118;11.628;2022-12-29T03:01:29;1.40;;;0.95;;
1014;SDS011;8170;48.118;11.628;2022-12-29T03:03:15;1.48;;;1.00;;
1014;SDS011;8170;48.118;11.628;2022-12-29T03:04:29;1.30;;;0.90;;
1014;SDS011;8170;48.118;11.628;2022-12-29T03:05:42;1.45;;;0.90;;
1014;SDS011;8170;48.118;11.628;2022-12-29T03:07:09;1.27;;;0.68;;
1014;SDS011;8170;48.118;11.628;2022-12-29T03:08:23;1.40;;;1.00;;
1014;SDS011;8170;48.118;11.628;2022-12-29T03:09:36;1.30;;;0.90;;
1014;SDS011;8170;48.118;11.628;2022-12-29T03:10:45;1.38;;;1.00;;
1014;SDS011;8170;48.118;11.628;2022-12-29T03:11:53;1.30;;;1.00;;
1014;SDS011;8170;48.118;11.628;2022-12-29T03:13:11;1.10;;;0.80;;
1014;SDS011;8170;48.118;11.628;2022-12-29T03:14:48;1.40;;;0.90;;
1014;SDS011;8170;48.118;11.628;2022-12-29T03:16:18;1.30;;;0.80;;
1014;SDS011;8170;48.118;11.628;2022-12-29T03:17:27;1.50;;;0.90;;
1014;SDS011;8170;48.118;11.628;2022-12-29T03:18:41;1.42;;;0.93;;
1014;SDS011;8170;48.118;11.628;2022-12-29T03:19:52;2.20;;;1.10;;
1014;SDS011;8170;48.118;11.628;2022-12-29T03:21:04;1.20;;;0.80;;
1014;SDS011;8170;48.118;11.628;2022-12-29T03:22:13;1.30;;;0.80;;
1014;SDS011;8170;48.118;11.628;2022-12-29T03:23:43;1.35;;;0.80;;
1014;SDS011;8170;48.118;11.628;2022-12-29T03:24:52;1.50;;;0.95;;
1014;SDS011;8170;48.118;11.628;2022-12-29T03:25:59;1.30;;;0.90;;
1014;SDS011;8170;48.118;11.628;2022-12-29T03:27:06;1.58;;;1.02;;
1014;SDS011;8170;48.118;11.628;2022-12-29T03:28:15;2.65;;;1.30;;
1014;SDS011;8170;48.118;11.628;2022-12-29T03:29:24;1.30;;;0.90;;
1014;SDS011;8170;48.118;11.628;2022-12-29T03:30:29;1.40;;;0.90;;
1014;SDS011;8170;48.118;11.628;2022-12-29T03:31:36;1.40;;;0.90;;
1014;SDS011;8170;48.118;11.628;2022-12-29T03:32:42;1.20;;;0.80;;
1014;SDS011;8170;48.118;11.628;2022-12-29T03:33:49;2.17;;;1.25;;
1014;SDS011;8170;48.118;11.628;2022-12-29T03:34:55;1.40;;;1.00;;
1014;SDS011;8170;48.118;11.628;2022-12-29T03:36:00;1.50;;;1.00;;
1014;SDS011;8170;48.118;11.628;2022-12-29T03:37:06;1.60;;;1.23;;
1014;SDS011;8170;48.118;11.628;2022-12-29T03:38:14;1.58;;;0.80;;
1014;SDS011;8170;48.118;11.628;2022-12-29T03:39:20;1.48;;;1.10;;
1014;SDS011;8170;48.118;11.628;2022-12-29T03:40:26;1.50;;;0.90;;
1014;SDS011;8170;48.118;11.628;2022-12-29T03:41:30;1.35;;;0.77;;
1014;SDS011;8170;48.118;11.628;2022-12-29T03:42:37;1.38;;;1.00;;
1014;SDS011;8170;48.118;11.628;2022-12-29T03:43:41;1.40;;;0.90;;
1014;SDS011;8170;48.118;11.628;2022-12-29T03:44:45;1.33;;;0.95;;
1014;SDS011;8170;48.118;11.628;2022-12-29T03:45:49;1.15;;;0.80;;
1014;SDS011;8170;48.118;11.628;2022-12-29T03:46:53;2.45;;;0.90;;
1014;SDS011;8170;48.118;11.628;2022-12-29T03:47:56;1.40;;;0.95;;
1014;SDS011;8170;48.118;11.628;2022-12-29T03:49:01;2.40;;;1.20;;
1014;SDS011;8170;48.118;11.628;2022-12-29T03:50:03;1.67;;;1.00;;
1014;SDS011;8170;48.118;11.628;2022-12-29T03:51:10;1.13;;;0.80;;
1014;SDS011;8170;48.118;11.628;2022-12-29T03:52:13;1.92;;;1.20;;
1014;SDS011;8170;48.118;11.628;2022-12-29T03:53:18;1.40;;;1.08;;
1014;SDS011;8170;48.118;11.628;2022-12-29T03:54:21;1.70;;;1.00;;
1014;SDS011;8170;48.118;11.628;2022-12-29T03:55:24;1.30;;;0.98;;
1014;SDS011;8170;48.118;11.628;2022-12-29T03:56:27;1.23;;;0.90;;
1014;SDS011;8170;48.118;11.628;2022-12-29T03:57:30;1.77;;;1.10;;
1014;SDS011;8170;48.118;11.628;2022-12-29T03:58:36;1.85;;;1.23;;
1014;SDS011;8170;48.118;11.628;2022-12-29T03:59:53;1.27;;;0.90;;
1014;SDS011;8170;48.118;11.628;2022-12-29T04:00:55;1.73;;;1.00;;
1014;SDS011;8170;48.118;11.628;2022-12-29T04:01:59;1.20;;;0.70;;
1014;SDS011;8170;48.118;11.628;2022-12-29T04:03:03;1.77;;;1.20;;
1014;SDS011;8170;48.118;11.628;2022-12-29T04:04:06;1.35;;;0.80;;
1014;SDS011;8170;48.118;11.628;2022-12-29T04:05:09;1.67;;;0.80;;
1014;SDS011;8170;48.118;11.628;2022-12-29T04:06:12;1.13;;;0.70;;
1014;SDS011;8170;48.118;11.628;2022-12-29T04:07:21;1.38;;;0.90;;
1014;SDS011;8170;48.118;11.628;2022-12-29T04:08:27;1.20;;;0.88;;
1014;SDS011;8170;48.118;11.628;2022-12-29T04:09:29;1.67;;;0.95;;
1014;SDS011;8170;48.118;11.628;2022-12-29T04:10:33;1.40;;;0.90;;
1014;SDS011;8170;48.118;11.628;2022-12-29T04:11:38;1.05;;;0.75;;
1014;SDS011;8170;48.118;11.628;2022-12-29T04:12:41;1.55;;;0.90;;
1014;SDS011;8170;48.118;11.628;2022-12-29T04:13:43;1.65;;;1.00;;
1014;SDS011;8170;48.118;11.628;2022-12-29T04:14:51;1.40;;;0.95;;
1014;SDS011;8170;48.118;11.628;2022-12-29T04:15:53;2.08;;;0.90;;
1014;SDS011;8170;48.118;11.628;2022-12-29T04:16:57;1.60;;;1.10;;
1014;SDS011;8170;48.118;11.628;2022-12-29T04:17:59;0.90;;;0.63;;
1014;SDS011;8170;48.118;11.628;2022-12-29T04:19:04;1.90;;;0.95;;
1014;SDS011;8170;48.118;11.628;2022-12-29T04:20:09;1.42;;;1.10;;
1014;SDS011;8170;48.118;11.628;2022-12-29T04:21:31;2.10;;;1.17;;
1014;SDS011;8170;48.118;11.628;2022-12-29T04:22:34;1.40;;;0.70;;
1014;SDS011;8170;48.118;11.628;2022-12-29T04:23:37;1.38;;;0.80;;
1014;SDS011;8170;48.118;11.628;2022-12-29T04:24:43;1.30;;;0.82;;
1014;SDS011;8170;48.118;11.628;2022-12-29T04:25:46;1.40;;;0.98;;
1014;SDS011;8170;48.118;11.628;2022-12-29T04:26:49;1.35;;;0.82;;
1014;SDS011;8170;48.118;11.628;2022-12-29T04:28:04;2.15;;;1.10;;
1014;SDS011;8170;48.118;11.628;2022-12-29T04:29:32;1.83;;;1.00;;
1014;SDS011;8170;48.118;11.628;2022-12-29T04:30:54;2.28;;;0.90;;
1014;SDS011;8170;48.118;11.628;2022-12-29T04:32:04;1.17;;;0.90;;
1014;SDS011;8170;48.118;11.628;2022-12-29T04:33:11;1.40;;;1.00;;
1014;SDS011;8170;48.118;11.628;2022-12-29T04:34:17;1.55;;;1.08;;
1014;SDS011;8170;48.118;11.628;2022-12-29T04:35:21;2.35;;;1.10;;
1014;SDS011;8170;48.118;11.628;2022-12-29T04:36:24;1.33;;;0.85;;
1014;SDS011;8170;48.118;11.628;2022-12-29T04:37:31;1.52;;;0.80;;
1014;SDS011;8170;48.118;11.628;2022-12-29T04:38:33;1.23;;;0.85;;
1014;SDS011;8170;48.118;11.628;2022-12-29T04:39:38;1.63;;;1.10;;
1014;SDS011;8170;48.118;11.628;2022-12-29T04:40:42;2.55;;;0.88;;
1014;SDS011;8170;48.118;11.628;2022-12-29T04:41:46;1.38;;;0.93;;
1014;SDS011;8170;48.118;11.628;2022-12-29T04:42:52;1.10;;;0.80;;
1014;SDS011;8170;48.118;11.628;2022-12-29T04:43:56;1.50;;;0.90;;
1014;SDS011;8170;48.118;11.628;2022-12-29T04:45:13;1.70;;;0.90;;
1014;SDS011;8170;48.118;11.628;2022-12-29T04:46:33;1.50;;;0.88;;
1014;SDS011;8170;48.118;11.628;2022-12-29T04:47:42;1.55;;;1.05;;
1014;SDS011;8170;48.118;11.628;2022-12-29T04:49:10;1.23;;;0.80;;
1014;SDS011;8170;48.118;11.628;2022-12-29T04:50:27;1.20;;;0.80;;
1014;SDS011;8170;48.118;11.628;2022-12-29T04:51:48;1.20;;;0.80;;
1014;SDS011;8170;48.118;11.628;2022-12-29T04:52:52;1.60;;;0.93;;
1014;SDS011;8170;48.118;11.628;2022-12-29T04:53:55;3.00;;;1.00;;
1014;SDS011;8170;48.118;11.628;2022-12-29T04:54:59;1.15;;;0.80;;
1014;SDS011;8170;48.118;11.628;2022-12-29T04:56:02;1.08;;;0.70;;
1014;SDS011;8170;48.118;11.628;2022-12-29T04:57:05;1.42;;;0.80;;
1014;SDS011;8170;48.118;11.628;2022-12-29T04:58:09;1.55;;;0.80;;
1014;SDS011;8170;48.118;11.628;2022-12-29T04:59:21;1.40;;;0.90;;
1014;SDS011;8170;48.118;11.628;2022-12-29T05:00:26;1.33;;;0.80;;
1014;SDS011;8170;48.118;11.628;2022-12-29T05:01:30;3.83;;;1.15;;
1014;SDS011;8170;48.118;11.628;2022-12-29T05:02:32;1.83;;;1.00;;
1014;SDS011;8170;48.118;11.628;2022-12-29T05:03:35;1.30;;;0.93;;
1014;SDS011;8170;48.118;11.628;2022-12-29T05:04:38;1.35;;;0.82;;
1014;SDS011;8170;48.118;11.628;2022-12-29T05:05:43;2.10;;;1.20;;
1014;SDS011;8170;48.118;11.628;2022-12-29T05:06:46;3.05;;;1.45;;
1014;SDS011;8170;48.118;11.628;2022-12-29T05:07:51;3.88;;;0.90;;
1014;SDS011;8170;48.118;11.628;2022-12-29T05:08:53;1.52;;;1.00;;
1014;SDS011;8170;48.118;11.628;2022-12-29T05:09:56;1.30;;;0.90;;
1014;SDS011;8170;48.118;11.628;2022-12-29T05:11:00;1.30;;;0.98;;
1014;SDS011;8170;48.118;11.628;2022-12-29T05:12:04;2.35;;;0.90;;
1014;SDS011;8170;48.118;11.628;2022-12-29T05:13:08;2.15;;;0.90;;
1014;SDS011;8170;48.118;11.628;2022-12-29T05:14:12;2.78;;;0.93;;
1014;SDS011;8170;48.118;11.628;2022-12-29T05:15:15;1.08;;;0.82;;
1014;SDS011;8170;48.118;11.628;2022-12-29T05:16:19;1.30;;;1.00;;
1014;SDS011;8170;48.118;11.628;2022-12-29T05:17:21;1.80;;;1.00;;
1014;SDS011;8170;48.118;11.628;2022-12-29T05:18:24;1.60;;;1.00;;
1014;SDS011;8170;48.118;11.628;2022-12-29T05:19:27;2.10;;;0.93;;
1014;SDS011;8170;48.118;11.628;2022-12-29T05:20:31;2.42;;;1.02;;
1014;SDS011;8170;48.118;11.628;2022-12-29T05:21:34;1.00;;;0.82;;
1014;SDS011;8170;48.118;11.628;2022-12-29T05:22:38;1.63;;;0.80;;
1014;SDS011;8170;48.118;11.628;2022-12-29T05:23:40;1.10;;;0.90;;
1014;SDS011;8170;48.118;11.628;2022-12-29T05:24:44;2.53;;;1.05;;
1014;SDS011;8170;48.118;11.628;2022-12-29T05:25:46;1.10;;;0.80;;
1014;SDS011;8170;48.118;11.628;2022-12-29T05:26:52;2.20;;;1.00;;
1014;SDS011;8170;48.118;11.628;2022-12-29T05:28:14;1.45;;;1.00;;
1014;SDS011;8170;48.118;11.628;2022-12-29T05:29:31;1.20;;;0.90;;
1014;SDS011;8170;48.118;11.628;2022-12-29T05:30:33;1.42;;;0.90;;
1014;SDS011;8170;48.118;11.628;2022-12-29T05:31:37;1.27;;;0.95;;
1014;SDS011;8170;48.118;11.628;2022-12-29T05:32:40;1.50;;;1.10;;
1014;SDS011;8170;48.118;11.628;2022-12-29T05:33:43;1.30;;;0.90;;
1014;SDS011;8170;48.118;11.628;2022-12-29T05:34:46;2.28;;;1.10;;
1014;SDS011;8170;48.118;11.628;2022-12-29T05:35:50;1.27;;;1.00;;
1014;SDS011;8170;48.118;11.628;2022-12-29T05:36:55;1.30;;;1.00;;
1014;SDS011;8170;48.118;11.628;2022-12-29T05:37:59;2.30;;;0.88;;
1014;SDS011;8170;48.118;11.628;2022-12-29T05:39:01;1.33;;;0.95;;
1014;SDS011;8170;48.118;11.628;2022-12-29T05:40:05;2.22;;;1.20;;
1014;SDS011;8170;48.118;11.628;2022-12-29T05:41:08;1.98;;;1.10;;
1014;SDS011;8170;48.118;11.628;2022-12-29T05:42:32;2.50;;;0.90;;
1014;SDS011;8170;48.118;11.628;2022-12-29T05:43:52;1.50;;;1.10;;
1014;SDS011;8170;48.118;11.628;2022-12-29T05:44:58;1.73;;;1.08;;
1014;SDS011;8170;48.118;11.628;2022-12-29T05:46:20;2.92;;;1.20;;
1014;SDS011;8170;48.118;11.628;2022-12-29T05:47:38;1.70;;;0.82;;
1014;SDS011;8170;48.118;11.628;2022-12-29T05:48:48;1.70;;;0.95;;
1014;SDS011;8170;48.118;11.628;2022-12-29T05:49:59;1.85;;;1.00;;
1014;SDS011;8170;48.118;11.628;2022-12-29T05:51:12;1.55;;;1.23;;
1014;SDS011;8170;48.118;11.628;2022-12-29T05:52:23;1.10;;;0.75;;
1014;SDS011;8170;48.118;11.628;2022-12-29T05:53:27;2.35;;;1.20;;
1014;SDS011;8170;48.118;11.628;2022-12-29T05:54:31;1.45;;;0.90;;
1014;SDS011;8170;48.118;11.628;2022-12-29T05:55:35;1.40;;;0.95;;
1014;SDS011;8170;48.118;11.628;2022-12-29T05:56:43;1.15;;;0.98;;
1014;SDS011;8170;48.118;11.628;2022-12-29T05:57:46;1.35;;;0.90;;
1014;SDS011;8170;48.118;11.628;2022-12-29T05:58:50;1.85;;;0.85;;
1014;SDS011;8170;48.118;11.628;2022-12-29T05:59:55;1.60;;;0.95;;
1014;SDS011;8170;48.118;11.628;2022-12-29T06:00:58;2.00;;;0.98;;
1014;SDS011;8170;48.118;11.628;2022-12-29T06:02:01;2.92;;;1.08;;
1014;SDS011;8170;48.118;11.628;2022-12-29T06:03:05;1.88;;;1.15;;
1014;SDS011;8170;48.118;11.628;2022-12-29T06:04:08;2.17;;;1.05;;
1014;SDS011;8170;48.118;11.628;2022-12-29T06:05:12;1.48;;;1.00;;
1014;SDS011;8170;48.118;11.628;2022-12-29T06:06:14;1.30;;;1.00;;
1014;SDS011;8170;48.118;11.628;2022-12-29T06:07:18;2.28;;;1.00;;
1014;SDS011;8170;48.118;11.628;2022-12-29T06:08:23;2.30;;;1.10;;
1014;SDS011;8170;48.118;11.628;2022-12-29T06:09:27;1.42;;;1.05;;
1014;SDS011;8170;48.118;11.628;2022-12-29T06:10:29;1.40;;;1.08;;
1014;SDS011;8170;48.118;11.628;2022-12-29T06:11:37;2.17;;;0.93;;
1014;SDS011;8170;48.118;11.628;2022-12-29T06:12:39;2.80;;;1.20;;
1014;SDS011;8170;48.118;11.628;2022-12-29T06:13:42;1.90;;;1.30;;
1014;SDS011;8170;48.118;11.628;2022-12-29T06:14:46;1.45;;;1.10;;
1014;SDS011;8170;48.118;11.628;2022-12-29T06:15:48;1.35;;;1.00;;
1014;SDS011;8170;48.118;11.628;2022-12-29T06:16:54;1.60;;;1.10;;
1014;SDS011;8170;48.118;11.628;2022-12-29T06:17:56;3.60;;;1.50;;
1014;SDS011;8170;48.118;11.628;2022-12-29T06:18:59;1.60;;;1.10;;
1014;SDS011;8170;48.118;11.628;2022-12-29T06:20:04;1.95;;;1.20;;
1014;SDS011;8170;48.118;11.628;2022-12-29T06:21:07;2.03;;;1.10;;
1014;SDS011;8170;48.118;11.628;2022-12-29T06:22:10;2.38;;;1.35;;
1014;SDS011;8170;48.118;11.628;2022-12-29T06:23:14;1.92;;;1.23;;
1014;SDS011;8170;48.118;11.628;2022-12-29T06:24:21;1.40;;;1.00;;
1014;SDS011;8170;48.118;11.628;2022-12-29T06:25:24;2.20;;;1.40;;
1014;SDS011;8170;48.118;11.628;2022-12-29T06:26:27;2.85;;;1.30;;
1014;SDS011;8170;48.118;11.628;2022-12-29T06:27:30;2.83;;;1.45;;
1014;SDS011;8170;48.118;11.628;2022-12-29T06:28:34;1.80;;;1.30;;
1014;SDS011;8170;48.118;11.628;2022-12-29T06:29:37;1.55;;;1.40;;
1014;SDS011;8170;48.118;11.628;2022-12-29T06:30:43;2.47;;;1.15;;
1014;SDS011;8170;48.118;11.628;2022-12-29T06:31:46;2.00;;;1.10;;
1014;SDS011;8170;48.118;11.628;2022-12-29T06:32:50;1.63;;;1.00;;
1014;SDS011;8170;48.118;11.628;2022-12-29T06:33:53;3.05;;;1.60;;
1014;SDS011;8170;48.118;11.628;2022-12-29T06:35:04;1.83;;;1.40;;
1014;SDS011;8170;48.118;11.628;2022-12-29T06:36:11;2.72;;;1.63;;
1014;SDS011;8170;48.118;11.628;2022-12-29T06:37:14;2.15;;;1.50;;
1014;SDS011;8170;48.118;11.628;2022-12-29T06:38:17;2.50;;;1.52;;
1014;SDS011;8170;48.118;11.628;2022-12-29T06:39:22;2.58;;;1.10;;
1014;SDS011;8170;48.118;11.628;2022-12-29T06:40:35;1.90;;;1.27;;
1014;SDS011;8170;48.118;11.628;2022-12-29T06:41:54;2.70;;;1.52;;
1014;SDS011;8170;48.118;11.628;2022-12-29T06:43:14;2.03;;;1.48;;
1014;SDS011;8170;48.118;11.628;2022-12-29T06:44:37;2.55;;;1.40;;
1014;SDS011;8170;48.118;11.628;2022-12-29T06:45:43;1.55;;;1.30;;
1014;SDS011;8170;48.118;11.628;2022-12-29T06:46:47;2.28;;;1.40;;
1014;SDS011;8170;48.118;11.628;2022-12-29T06:47:49;3.20;;;1.50;;
1014;SDS011;8170;48.118;11.628;2022-12-29T06:48:53;2.25;;;1.60;;
1014;SDS011;8170;48.118;11.628;2022-12-29T06:49:55;2.67;;;1.80;;
1014;SDS011;8170;48.118;11.628;2022-12-29T06:50:58;2.05;;;1.77;;
1014;SDS011;8170;48.118;11.628;2022-12-29T06:52:01;2.60;;;1.60;;
1014;SDS011;8170;48.118;11.628;2022-12-29T06:53:12;2.90;;;1.75;;
1014;SDS011;8170;48.118;11.628;2022-12-29T06:54:16;2.00;;;1.60;;
1014;SDS011;8170;48.118;11.628;2022-12-29T06:55:19;2.00;;;1.55;;
1014;SDS011;8170;48.118;11.628;2022-12-29T06:56:23;2.22;;;1.67;;
1014;SDS011;8170;48.118;11.628;2022-12-29T06:57:25;2.00;;;1.55;;